createdAt,value
2022-09-29T00:01:04.671Z,6.40
2022-09-29T00:03:31.670Z,6.40
2022-09-29T00:05:58.752Z,6.40
2022-09-29T00:08:32.003Z,6.40
2022-09-29T00:10:59.096Z,6.20
2022-09-29T00:13:26.169Z,6.10
2022-09-29T00:16:01.818Z,5.90
2022-09-29T00:18:30.814Z,5.80
2022-09-29T00:21:07.876Z,5.70
2022-09-29T00:23:35.921Z,5.50
2022-09-29T00:26:08.727Z,5.40
2022-09-29T00:28:37.701Z,5.30
2022-09-29T00:31:07.233Z,5.30
2022-09-29T00:33:37.365Z,5.20
2022-09-29T00:36:11.188Z,5.20
2022-09-29T00:38:38.509Z,5.10
2022-09-29T00:41:06.936Z,5.20
2022-09-29T00:44:46.100Z,5.30
2022-09-29T00:47:18.009Z,5.30
2022-09-29T00:49:57.431Z,5.30
2022-09-29T00:52:42.432Z,5.30
2022-09-29T00:55:28.390Z,5.30
2022-09-29T00:58:06.492Z,5.40
2022-09-29T01:00:33.431Z,5.60
2022-09-29T01:03:12.227Z,5.70
2022-09-29T01:05:46.477Z,5.70
2022-09-29T01:08:39.713Z,5.70
2022-09-29T01:11:06.777Z,5.60
2022-09-29T01:13:35.418Z,5.50
2022-09-29T01:16:02.386Z,5.50
2022-09-29T01:18:30.748Z,5.40
2022-09-29T01:21:11.665Z,5.40
2022-09-29T01:24:23.000Z,5.40
2022-09-29T01:27:04.774Z,5.40
2022-09-29T01:29:53.333Z,5.40
2022-09-29T01:32:32.178Z,5.40
2022-09-29T01:35:17.564Z,5.30
2022-09-29T01:37:59.144Z,5.20
2022-09-29T01:40:38.527Z,5.20
2022-09-29T01:43:18.513Z,5.10
2022-09-29T01:46:15.110Z,5.10
2022-09-29T01:48:52.956Z,5.10
2022-09-29T01:51:32.186Z,5.00
2022-09-29T01:54:06.009Z,4.90
2022-09-29T01:56:59.214Z,4.80
2022-09-29T01:59:43.754Z,4.80
2022-09-29T02:02:19.236Z,4.80
2022-09-29T02:04:59.666Z,4.70
2022-09-29T02:07:39.866Z,4.60
2022-09-29T02:10:16.982Z,4.70
2022-09-29T02:12:46.157Z,4.70
2022-09-29T02:15:19.929Z,4.70
2022-09-29T02:17:50.154Z,4.60
2022-09-29T02:20:17.066Z,4.60
2022-09-29T02:22:43.900Z,4.60
2022-09-29T02:25:13.390Z,4.70
2022-09-29T02:27:41.219Z,4.70
2022-09-29T02:30:09.009Z,4.70
2022-09-29T02:32:36.591Z,4.70
2022-09-29T02:35:07.483Z,4.80
2022-09-29T02:37:46.189Z,4.80
2022-09-29T02:40:28.881Z,4.70
2022-09-29T02:43:35.144Z,4.80
2022-09-29T02:46:34.743Z,4.70
2022-09-29T02:49:09.073Z,4.70
2022-09-29T02:51:48.354Z,4.70
2022-09-29T02:54:27.175Z,4.80
2022-09-29T02:56:59.600Z,4.90
2022-09-29T02:59:37.494Z,4.90
2022-09-29T03:02:04.360Z,4.90
2022-09-29T03:04:31.270Z,5.00
2022-09-29T03:06:58.567Z,5.00
2022-09-29T03:09:25.445Z,5.00
2022-09-29T03:11:52.471Z,5.00
2022-09-29T03:14:19.454Z,5.00
2022-09-29T03:16:46.507Z,5.10
2022-09-29T03:19:13.301Z,5.10
2022-09-29T03:21:40.371Z,5.20
2022-09-29T03:24:07.373Z,5.20
2022-09-29T03:26:34.183Z,5.10
2022-09-29T03:29:01.246Z,5.10
2022-09-29T03:31:28.234Z,5.10
2022-09-29T03:33:55.074Z,5.10
2022-09-29T03:36:21.858Z,5.10
2022-09-29T03:38:48.804Z,5.20
2022-09-29T03:41:15.898Z,5.30
2022-09-29T03:43:42.970Z,5.40
2022-09-29T03:46:09.977Z,5.40
2022-09-29T03:48:36.899Z,5.40
2022-09-29T03:51:04.107Z,5.40
2022-09-29T03:53:31.457Z,5.40
2022-09-29T03:55:58.344Z,5.30
2022-09-29T03:58:25.592Z,5.20
2022-09-29T04:00:52.851Z,5.20
2022-09-29T04:03:21.048Z,5.10
2022-09-29T04:05:49.223Z,5.10
2022-09-29T04:08:16.599Z,5.10
2022-09-29T04:10:43.810Z,5.20
2022-09-29T04:13:10.614Z,5.30
2022-09-29T04:15:38.103Z,5.50
2022-09-29T04:18:06.266Z,5.60
2022-09-29T04:20:33.440Z,5.60
2022-09-29T04:23:01.174Z,5.70
2022-09-29T04:25:28.366Z,5.70
2022-09-29T04:27:55.156Z,5.70
2022-09-29T04:30:22.041Z,5.80
2022-09-29T04:32:48.944Z,5.80
2022-09-29T04:35:16.121Z,5.80
2022-09-29T04:37:43.196Z,5.80
2022-09-29T04:40:11.788Z,5.90
2022-09-29T04:42:38.697Z,5.90
2022-09-29T04:45:06.376Z,5.80
2022-09-29T04:47:33.174Z,5.80
2022-09-29T04:50:00.010Z,5.90
2022-09-29T04:52:26.984Z,6.00
2022-09-29T04:54:53.925Z,6.00
2022-09-29T04:57:20.711Z,6.00
2022-09-29T04:59:47.510Z,6.10
2022-09-29T05:02:14.399Z,6.10
2022-09-29T05:04:41.354Z,6.10
2022-09-29T05:07:08.279Z,6.20
2022-09-29T05:09:35.135Z,6.40
2022-09-29T05:12:02.502Z,6.40
2022-09-29T05:14:29.355Z,6.50
2022-09-29T05:16:56.726Z,6.50
2022-09-29T05:19:23.718Z,6.50
2022-09-29T05:21:50.594Z,6.60
2022-09-29T05:24:17.469Z,6.60
2022-09-29T05:26:44.391Z,6.70
2022-09-29T05:29:11.248Z,6.70
2022-09-29T05:31:38.270Z,6.70
2022-09-29T05:34:05.428Z,6.70
2022-09-29T05:36:32.261Z,6.70
2022-09-29T05:38:59.239Z,6.70
2022-09-29T05:41:26.235Z,6.70
2022-09-29T05:43:55.276Z,6.70
2022-09-29T05:46:23.381Z,6.60
2022-09-29T05:48:51.399Z,6.60
2022-09-29T05:51:23.012Z,6.60
2022-09-29T05:53:51.153Z,6.60
2022-09-29T05:56:22.531Z,6.60
2022-09-29T05:58:49.700Z,6.60
2022-09-29T06:01:23.744Z,6.60
2022-09-29T06:03:53.785Z,6.70
2022-09-29T06:06:24.235Z,6.80
2022-09-29T06:08:51.760Z,6.80
2022-09-29T06:11:23.010Z,6.90
2022-09-29T06:13:52.558Z,6.90
2022-09-29T06:16:23.626Z,7.00
2022-09-29T06:18:50.827Z,7.00
2022-09-29T06:21:26.632Z,7.00
2022-09-29T06:23:57.863Z,7.00
2022-09-29T06:26:26.530Z,7.00
2022-09-29T06:28:54.461Z,7.00
2022-09-29T06:31:24.596Z,7.10
2022-09-29T06:33:51.705Z,7.20
2022-09-29T06:36:45.041Z,7.40
2022-09-29T06:39:15.029Z,7.60
2022-09-29T06:41:48.575Z,7.70
2022-09-29T06:44:15.876Z,7.90
2022-09-29T06:46:42.944Z,7.90
2022-09-29T06:49:16.307Z,7.90
2022-09-29T06:51:46.401Z,8.00
2022-09-29T06:54:17.406Z,8.00
2022-09-29T06:56:51.270Z,8.10
2022-09-29T06:59:18.506Z,8.10
2022-09-29T07:01:49.601Z,8.20
2022-09-29T07:04:17.170Z,8.20
2022-09-29T07:06:45.709Z,8.10
2022-09-29T07:09:16.489Z,8.20
2022-09-29T07:11:48.374Z,8.40
2022-09-29T07:14:17.342Z,8.50
2022-09-29T07:16:45.415Z,8.70
2022-09-29T07:19:12.342Z,9.00
2022-09-29T07:21:39.239Z,9.10
2022-09-29T07:24:06.577Z,9.20
2022-09-29T07:26:33.369Z,9.40
2022-09-29T07:29:00.330Z,9.60
2022-09-29T07:31:27.677Z,9.70
2022-09-29T07:33:56.543Z,9.80
2022-09-29T07:36:23.992Z,10.00
2022-09-29T07:38:52.533Z,10.20
2022-09-29T07:41:23.530Z,10.30
2022-09-29T07:43:51.087Z,10.30
2022-09-29T07:46:17.981Z,10.30
2022-09-29T07:48:45.062Z,10.20
2022-09-29T07:51:20.500Z,10.10
2022-09-29T07:53:48.331Z,10.10
2022-09-29T07:56:22.383Z,10.20
2022-09-29T07:58:50.930Z,10.20
2022-09-29T08:01:20.006Z,10.20
2022-09-29T08:03:54.274Z,10.20
2022-09-29T08:06:23.470Z,10.20
2022-09-29T08:09:02.719Z,10.30
2022-09-29T08:11:33.107Z,10.30
2022-09-29T08:14:01.208Z,10.50
2022-09-29T08:16:28.640Z,10.60
2022-09-29T08:18:55.579Z,10.70
2022-09-29T08:21:22.613Z,10.80
2022-09-29T08:23:49.590Z,10.90
2022-09-29T08:26:22.285Z,11.00
2022-09-29T08:29:06.440Z,11.10
2022-09-29T08:31:38.056Z,11.20
2022-09-29T08:34:05.761Z,11.30
2022-09-29T08:36:32.725Z,11.50
2022-09-29T08:39:00.152Z,11.80
2022-09-29T08:42:01.797Z,12.10
2022-09-29T08:45:15.689Z,12.40
2022-09-29T08:47:49.500Z,12.70
2022-09-29T08:50:35.357Z,13.00
2022-09-29T08:53:22.469Z,13.20
2022-09-29T08:56:17.811Z,13.30
2022-09-29T08:58:45.109Z,13.40
2022-09-29T09:02:17.170Z,13.30
2022-09-29T09:05:18.222Z,13.20
2022-09-29T09:08:13.197Z,13.50
2022-09-29T09:10:47.363Z,13.50
2022-09-29T09:13:50.875Z,13.90
2022-09-29T09:16:28.229Z,14.50
2022-09-29T09:19:26.321Z,14.70
2022-09-29T09:22:21.748Z,14.90
2022-09-29T09:25:13.631Z,14.80
2022-09-29T09:27:45.416Z,15.00
2022-09-29T09:30:21.044Z,15.50
2022-09-29T09:32:56.386Z,15.60
2022-09-29T09:35:58.641Z,15.70
2022-09-29T09:38:39.097Z,15.70
2022-09-29T09:41:07.196Z,15.40
2022-09-29T09:43:46.356Z,15.10
2022-09-29T09:46:39.150Z,14.80
2022-09-29T09:49:27.878Z,14.70
2022-09-29T09:52:30.237Z,14.40
2022-09-29T09:55:05.191Z,14.40
2022-09-29T09:57:52.297Z,14.40
2022-09-29T10:00:34.143Z,14.40
2022-09-29T10:03:05.649Z,14.40
2022-09-29T10:05:42.005Z,14.60
2022-09-29T10:08:29.252Z,14.80
2022-09-29T10:10:59.714Z,14.70
2022-09-29T10:13:31.602Z,14.70
2022-09-29T10:16:03.640Z,14.60
2022-09-29T10:18:40.291Z,14.70
2022-09-29T10:21:27.350Z,14.60
2022-09-29T10:23:57.266Z,14.60
2022-09-29T10:26:33.492Z,14.40
2022-09-29T10:29:28.897Z,14.30
2022-09-29T10:32:06.806Z,14.50
2022-09-29T10:34:37.422Z,14.90
2022-09-29T10:37:20.720Z,14.90
2022-09-29T10:39:48.765Z,14.60
2022-09-29T10:42:33.352Z,14.30
2022-09-29T10:45:22.753Z,14.30
2022-09-29T10:47:58.501Z,14.60
2022-09-29T10:50:34.997Z,14.60
2022-09-29T10:53:19.923Z,14.70
2022-09-29T10:55:54.649Z,14.70
2022-09-29T10:59:05.391Z,14.80
2022-09-29T11:01:45.636Z,15.00
2022-09-29T11:04:29.730Z,15.30
2022-09-29T11:06:57.996Z,15.60
2022-09-29T11:09:30.177Z,15.60
2022-09-29T11:12:01.639Z,15.50
2022-09-29T11:14:40.435Z,15.40
2022-09-29T11:17:27.619Z,15.40
2022-09-29T11:20:07.442Z,15.60
2022-09-29T11:23:08.002Z,15.80
2022-09-29T11:26:25.619Z,16.00
2022-09-29T11:29:28.833Z,16.20
2022-09-29T11:32:30.544Z,16.20
2022-09-29T11:35:21.731Z,15.90
2022-09-29T11:37:51.653Z,15.50
2022-09-29T11:40:41.885Z,15.40
2022-09-29T11:43:49.114Z,15.30
2022-09-29T11:46:52.942Z,15.80
2022-09-29T11:49:39.416Z,15.90
2022-09-29T11:52:31.939Z,16.20
2022-09-29T11:55:05.539Z,16.40
2022-09-29T11:58:02.854Z,16.20
2022-09-29T12:00:43.574Z,15.90
2022-09-29T12:03:27.141Z,15.70
2022-09-29T12:06:18.150Z,15.90
2022-09-29T12:09:15.297Z,16.00
2022-09-29T12:12:23.988Z,16.10
2022-09-29T12:15:12.092Z,16.10
2022-09-29T12:17:45.874Z,15.70
2022-09-29T12:20:29.374Z,15.20
2022-09-29T12:23:03.113Z,15.10
2022-09-29T12:25:35.703Z,14.70
2022-09-29T12:28:19.027Z,14.60
2022-09-29T12:31:01.981Z,14.50
2022-09-29T12:33:39.209Z,14.50
2022-09-29T12:36:52.406Z,14.50
2022-09-29T12:39:39.510Z,14.70
2022-09-29T12:42:40.935Z,14.70
2022-09-29T12:45:53.794Z,14.50
2022-09-29T12:48:52.819Z,14.20
2022-09-29T12:51:39.654Z,14.20
2022-09-29T12:54:28.570Z,14.00
2022-09-29T12:57:10.331Z,14.00
2022-09-29T12:59:58.012Z,14.00
2022-09-29T13:03:32.601Z,13.90
2022-09-29T13:06:15.174Z,14.00
2022-09-29T13:09:02.782Z,13.90
2022-09-29T13:11:43.113Z,13.80
2022-09-29T13:14:44.987Z,13.50
2022-09-29T13:17:53.858Z,13.60
2022-09-29T13:20:23.353Z,13.40
2022-09-29T13:23:08.210Z,13.20
2022-09-29T13:26:13.411Z,13.20
2022-09-29T13:28:50.072Z,13.20
2022-09-29T13:31:22.512Z,13.10
2022-09-29T13:34:01.439Z,13.00
2022-09-29T13:36:44.082Z,12.80
2022-09-29T13:39:27.039Z,12.70
2022-09-29T13:41:57.687Z,12.60
2022-09-29T13:44:28.366Z,12.40
2022-09-29T13:46:57.051Z,12.20
2022-09-29T13:49:29.079Z,11.90
2022-09-29T13:52:03.498Z,11.60
2022-09-29T13:54:41.420Z,11.40
2022-09-29T13:57:23.799Z,11.30
2022-09-29T13:59:56.217Z,11.30
2022-09-29T14:02:48.209Z,11.40
2022-09-29T14:05:24.293Z,11.50
2022-09-29T14:08:22.043Z,11.50
2022-09-29T14:11:18.323Z,11.40
2022-09-29T14:13:55.782Z,11.30
2022-09-29T14:16:34.297Z,11.30
2022-09-29T14:19:38.852Z,11.20
2022-09-29T14:22:33.361Z,11.10
2022-09-29T14:25:11.848Z,10.80
2022-09-29T14:28:05.989Z,10.80
2022-09-29T14:30:35.849Z,10.90
2022-09-29T14:33:13.849Z,11.10
2022-09-29T14:35:44.797Z,11.50
2022-09-29T14:38:34.180Z,11.80
2022-09-29T14:41:32.094Z,11.80
2022-09-29T14:44:20.915Z,11.90
2022-09-29T14:47:58.477Z,12.10
2022-09-29T14:51:00.735Z,12.10
2022-09-29T14:53:44.849Z,12.10
2022-09-29T14:57:02.974Z,11.90
2022-09-29T15:00:09.896Z,12.10
2022-09-29T15:02:43.440Z,12.40
2022-09-29T15:05:35.676Z,12.40
2022-09-29T15:08:26.898Z,12.50
2022-09-29T15:10:53.837Z,13.80
2022-09-29T15:13:31.874Z,15.90
2022-09-29T15:16:16.936Z,15.80
2022-09-29T15:19:36.531Z,15.60
2022-09-29T15:22:45.362Z,15.30
2022-09-29T15:25:31.197Z,15.40
2022-09-29T15:28:02.874Z,15.30
2022-09-29T15:30:31.401Z,14.70
2022-09-29T15:33:25.219Z,14.70
2022-09-29T15:36:01.284Z,15.10
2022-09-29T15:38:33.120Z,14.90
2022-09-29T15:41:13.394Z,14.70
2022-09-29T15:44:22.429Z,15.00
2022-09-29T15:46:52.589Z,16.80
2022-09-29T15:49:23.888Z,19.60
2022-09-29T15:52:14.949Z,21.20
2022-09-29T16:26:45.331Z,17.50
2022-09-29T16:29:36.751Z,17.20
2022-09-29T16:32:34.557Z,16.20
2022-09-29T16:35:42.307Z,15.30
2022-09-29T16:38:37.024Z,14.60
2022-09-29T16:41:20.993Z,14.00
2022-09-29T16:43:49.081Z,13.70
2022-09-29T16:46:23.580Z,13.60
2022-09-29T16:48:50.881Z,13.50
2022-09-29T16:51:39.671Z,13.20
2022-09-29T16:54:13.196Z,12.80
2022-09-29T16:56:40.776Z,12.40
2022-09-29T16:59:15.884Z,12.20
2022-09-29T17:01:44.717Z,12.00
2022-09-29T17:04:12.449Z,11.80
2022-09-29T17:06:46.664Z,11.60
2022-09-29T17:09:23.954Z,11.40
2022-09-29T17:11:50.889Z,11.10
2022-09-29T17:14:21.863Z,11.00
2022-09-29T17:16:52.876Z,10.90
2022-09-29T17:19:22.645Z,10.80
2022-09-29T17:21:50.099Z,10.80
2022-09-29T17:24:17.072Z,10.70
2022-09-29T17:27:05.192Z,10.60
2022-09-29T17:29:32.966Z,10.40
2022-09-29T17:32:02.485Z,10.40
2022-09-29T17:34:30.169Z,10.20
2022-09-29T17:37:01.953Z,10.20
2022-09-29T17:39:29.300Z,10.20
2022-09-29T17:41:56.187Z,10.10
2022-09-29T17:44:23.023Z,10.00
2022-09-29T17:46:54.502Z,9.90
2022-09-29T17:49:25.194Z,9.90
2022-09-29T17:51:52.278Z,9.80
2022-09-29T17:54:20.101Z,9.70
2022-09-29T17:56:47.067Z,9.60
2022-09-29T17:59:14.329Z,9.60
2022-09-29T18:01:41.407Z,9.60
2022-09-29T18:04:08.458Z,9.50
2022-09-29T18:06:37.748Z,9.40
2022-09-29T18:09:18.865Z,9.30
2022-09-29T18:11:47.953Z,9.30
2022-09-29T18:14:14.835Z,9.20
2022-09-29T18:16:41.888Z,9.10
2022-09-29T18:19:17.234Z,9.10
2022-09-29T18:21:44.439Z,9.00
2022-09-29T18:24:11.401Z,8.90
2022-09-29T18:26:39.410Z,8.70
2022-09-29T18:29:18.923Z,8.60
2022-09-29T18:31:46.078Z,8.60
2022-09-29T18:34:18.093Z,8.50
2022-09-29T18:36:45.833Z,8.40
2022-09-29T18:39:13.857Z,8.50
2022-09-29T18:41:40.948Z,8.50
2022-09-29T18:44:18.005Z,8.40
2022-09-29T18:46:45.598Z,8.40
2022-09-29T18:49:15.578Z,8.30
2022-09-29T18:51:42.492Z,8.20
2022-09-29T18:54:09.428Z,8.00
2022-09-29T18:56:36.414Z,7.80
2022-09-29T18:59:05.918Z,7.70
2022-09-29T19:01:32.996Z,7.70
2022-09-29T19:03:59.980Z,7.80
2022-09-29T19:06:26.945Z,7.80
2022-09-29T19:08:53.774Z,7.80
2022-09-29T19:11:24.910Z,7.60
2022-09-29T19:13:55.102Z,7.60
2022-09-29T19:16:24.120Z,7.70
2022-09-29T19:18:51.023Z,7.70
2022-09-29T19:21:18.356Z,7.80
2022-09-29T19:23:48.869Z,7.80
2022-09-29T19:26:20.070Z,7.80
2022-09-29T19:28:48.177Z,7.80
2022-09-29T19:31:21.807Z,7.70
2022-09-29T19:33:50.665Z,7.60
2022-09-29T19:36:21.770Z,7.30
2022-09-29T19:38:48.922Z,7.20
2022-09-29T19:41:21.518Z,7.00
2022-09-29T19:43:49.873Z,7.10
2022-09-29T19:46:18.943Z,7.20
2022-09-29T19:48:46.079Z,7.20
2022-09-29T19:51:36.292Z,7.20
2022-09-29T19:54:15.034Z,7.20
2022-09-29T19:56:48.428Z,7.10
2022-09-29T19:59:18.745Z,6.90
2022-09-29T20:01:49.468Z,7.00
2022-09-29T20:04:18.769Z,7.10
2022-09-29T20:06:45.819Z,7.20
2022-09-29T20:09:14.408Z,7.10
2022-09-29T20:11:43.375Z,7.10
2022-09-29T20:14:12.519Z,7.10
2022-09-29T20:16:42.537Z,7.20
2022-09-29T20:19:15.535Z,7.20
2022-09-29T20:21:44.928Z,7.20
2022-09-29T20:24:14.630Z,7.20
2022-09-29T20:26:44.162Z,7.30
2022-09-29T20:29:12.692Z,7.40
2022-09-29T20:31:39.699Z,7.40
2022-09-29T20:34:07.814Z,7.40
2022-09-29T20:36:35.465Z,7.40
2022-09-29T20:39:02.736Z,7.60
2022-09-29T20:41:29.738Z,7.50
2022-09-29T20:43:58.576Z,7.60
2022-09-29T20:46:27.625Z,7.50
2022-09-29T20:48:57.669Z,7.50
2022-09-29T20:51:25.945Z,7.60
2022-09-29T20:53:59.201Z,7.70
2022-09-29T20:56:32.603Z,7.80
2022-09-29T20:59:00.441Z,7.90
2022-09-29T21:01:30.676Z,7.90
2022-09-29T21:04:01.418Z,8.00
2022-09-29T21:06:30.595Z,7.90
2022-09-29T21:09:02.948Z,7.80
2022-09-29T21:11:29.981Z,7.80
2022-09-29T21:13:57.766Z,7.90
2022-09-29T21:16:25.744Z,8.00
2022-09-29T21:18:55.671Z,8.00
2022-09-29T21:21:22.781Z,7.90
2022-09-29T21:23:50.623Z,7.90
2022-09-29T21:26:20.724Z,7.90
2022-09-29T21:28:56.618Z,8.00
2022-09-29T21:31:27.185Z,8.00
2022-09-29T21:33:57.300Z,8.10
2022-09-29T21:36:27.085Z,8.10
2022-09-29T21:38:54.753Z,8.10
2022-09-29T21:41:28.384Z,8.00
2022-09-29T21:43:58.169Z,8.00
2022-09-29T21:46:29.211Z,8.00
2022-09-29T21:49:01.766Z,7.90
2022-09-29T21:51:35.363Z,8.00
2022-09-29T21:54:02.957Z,8.00
2022-09-29T21:56:35.156Z,8.00
2022-09-29T21:59:02.099Z,8.10
2022-09-29T22:01:28.949Z,8.20
2022-09-29T22:03:56.879Z,8.20
2022-09-29T22:06:32.792Z,8.20
2022-09-29T22:09:00.785Z,8.20
2022-09-29T22:11:31.959Z,8.20
2022-09-29T22:14:01.067Z,8.30
2022-09-29T22:16:33.716Z,8.30
2022-09-29T22:21:53.109Z,8.40
2022-09-29T22:24:20.417Z,8.30
2022-09-29T22:26:47.371Z,8.30
2022-09-29T22:29:14.170Z,8.30
2022-09-29T22:31:41.301Z,8.20
2022-09-29T22:34:11.008Z,8.20
2022-09-29T22:36:38.094Z,8.20
2022-09-29T22:39:06.694Z,8.20
2022-09-29T22:41:36.654Z,8.10
2022-09-29T22:44:04.270Z,8.10
2022-09-29T22:46:32.503Z,8.00
2022-09-29T22:49:00.095Z,8.00
2022-09-29T22:51:27.357Z,7.90
2022-09-29T22:53:54.273Z,7.90
2022-09-29T22:56:28.593Z,7.90
2022-09-29T22:59:01.005Z,7.90
2022-09-29T23:01:28.931Z,7.80
2022-09-29T23:03:56.162Z,7.70
2022-09-29T23:06:23.097Z,7.70
2022-09-29T23:08:50.230Z,7.80
2022-09-29T23:11:19.813Z,7.80
2022-09-29T23:13:47.268Z,7.80
2022-09-29T23:16:16.642Z,7.80
2022-09-29T23:18:45.782Z,7.90
2022-09-29T23:21:18.945Z,7.90
2022-09-29T23:23:59.626Z,7.90
2022-09-29T23:26:29.631Z,7.90
2022-09-29T23:28:56.675Z,7.90
2022-09-29T23:31:24.567Z,7.90
2022-09-29T23:33:59.612Z,8.00
2022-09-29T23:36:29.984Z,8.00
2022-09-29T23:39:14.215Z,8.00
2022-09-29T23:41:50.193Z,8.00
2022-09-29T23:44:23.975Z,8.00
2022-09-29T23:46:53.240Z,8.00
2022-09-29T23:49:27.549Z,8.00
2022-09-29T23:52:01.203Z,8.00
2022-09-29T23:54:29.582Z,7.90
2022-09-29T23:56:58.024Z,7.90
2022-09-29T23:59:25.671Z,7.90
